Time;durP1;ratioP1;P1;durP2;ratioP2;P2;SDS_P1;SDS_P2;PMS_P1;PMS_P2;Temp;Humidity;BMP_temperature;BMP_pressure;BME280_temperature;BME280_humidity;BME280_pressure;Samples;Min_cycle;Max_cycle;Signal;HPM_P1;HPM_P2
2021/12/10 00:01:33;;;;;;;16.23;9.85;;;22.70;56.30;;;;;;5097015;28;20063;-71
2021/12/10 00:04:01;;;;;;;17.20;11.43;;;22.70;56.30;;;;;;5096860;28;20044;-72
2021/12/10 00:06:33;;;;;;;16.40;10.80;;;22.70;56.40;;;;;;5096865;28;20051;-72
2021/12/10 00:09:26;;;;;;;17.80;10.53;;;22.60;56.50;;;;;;5096692;28;20100;-71
2021/12/10 00:11:55;;;;;;;16.57;11.47;;;22.40;56.70;;;;;;5096985;28;20052;-72
2021/12/10 00:14:26;;;;;;;16.52;11.27;;;22.30;56.90;;;;;;5096751;28;20033;-72
2021/12/10 00:16:53;;;;;;;16.70;10.95;;;22.30;57.10;;;;;;5096613;28;20036;-72
2021/12/10 00:21:49;;;;;;;18.58;11.48;;;22.30;57.30;;;;;;5096839;28;20075;-72
2021/12/10 00:24:17;;;;;;;17.05;10.32;;;22.30;57.20;;;;;;5096521;28;20044;-72
2021/12/10 00:26:44;;;;;;;18.55;11.38;;;22.20;57.20;;;;;;5096357;28;20048;-71
2021/12/10 00:29:12;;;;;;;17.95;10.70;;;22.30;57.10;;;;;;5096327;28;20086;-71
2021/12/10 00:31:48;;;;;;;15.32;9.68;;;22.20;57.00;;;;;;5096671;28;20067;-72
2021/12/10 00:34:32;;;;;;;13.63;9.75;;;22.20;57.00;;;;;;5096504;28;20041;-72
2021/12/10 00:37:02;;;;;;;16.13;9.50;;;22.30;56.90;;;;;;5096465;28;20067;-72
2021/12/10 00:39:35;;;;;;;15.27;9.45;;;22.30;56.80;;;;;;5096619;28;20044;-72
2021/12/10 00:42:05;;;;;;;17.42;10.15;;;22.40;56.70;;;;;;5096428;28;20033;-71
2021/12/10 00:44:32;;;;;;;14.32;9.13;;;22.30;56.60;;;;;;5096581;28;20062;-72
2021/12/10 00:46:58;;;;;;;17.45;9.77;;;22.20;56.50;;;;;;5096427;28;20052;-72
2021/12/10 00:49:24;;;;;;;15.10;9.30;;;22.30;56.70;;;;;;5096321;28;20747;-72
2021/12/10 00:51:50;;;;;;;14.98;9.20;;;22.30;56.70;;;;;;5096293;28;20053;-71
2021/12/10 00:54:17;;;;;;;14.43;9.02;;;22.40;56.40;;;;;;5096320;28;20067;-73
2021/12/10 00:56:44;;;;;;;16.67;10.00;;;22.40;56.20;;;;;;5096394;28;20064;-72
2021/12/10 00:59:11;;;;;;;15.02;9.70;;;22.40;56.10;;;;;;5096313;28;20056;-72
2021/12/10 01:01:39;;;;;;;17.02;10.00;;;22.40;56.30;;;;;;5096276;28;20053;-72
2021/12/10 01:04:20;;;;;;;17.77;10.55;;;22.50;56.20;;;;;;5096149;28;20045;-73
2021/12/10 01:06:48;;;;;;;16.23;10.25;;;22.40;56.30;;;;;;5096205;28;20105;-72
2021/12/10 01:09:24;;;;;;;16.60;10.50;;;22.40;56.30;;;;;;5095779;28;20052;-71
2021/12/10 01:11:56;;;;;;;16.25;10.65;;;22.50;56.50;;;;;;5096127;28;20040;-71
2021/12/10 01:14:40;;;;;;;17.95;10.60;;;22.40;56.40;;;;;;5096209;28;20040;-71
2021/12/10 01:25:53;;;;;;;19.45;12.23;;;22.30;56.50;;;;;;5096151;28;20076;-71
2021/12/10 01:28:11;;;;;;;20.17;12.98;;;22.20;56.40;;;;;;5095646;28;20053;-72
2021/12/10 01:30:40;;;;;;;18.75;12.30;;;22.30;56.40;;;;;;5096119;28;20040;-71
2021/12/10 01:33:16;;;;;;;20.45;12.25;;;22.30;56.50;;;;;;5096090;28;20036;-72
2021/12/10 01:35:53;;;;;;;21.70;12.48;;;22.10;56.40;;;;;;5096964;28;20048;-72
2021/12/10 01:38:20;;;;;;;20.05;11.88;;;22.10;56.50;;;;;;5099232;28;20048;-72
2021/12/10 01:40:51;;;;;;;21.45;11.63;;;22.00;56.40;;;;;;5099343;28;20048;-74
2021/12/10 01:43:23;;;;;;;22.98;12.15;;;22.00;56.40;;;;;;5099609;28;20040;-72
2021/12/10 01:46:06;;;;;;;19.67;11.02;;;22.10;56.50;;;;;;5098974;28;20040;-72
2021/12/10 01:49:00;;;;;;;23.65;12.65;;;22.00;56.30;;;;;;5099435;28;20048;-72
2021/12/10 01:51:31;;;;;;;24.05;12.77;;;22.00;56.40;;;;;;5096222;28;20044;-72
2021/12/10 01:54:05;;;;;;;20.00;12.90;;;21.90;56.50;;;;;;5099349;28;20044;-72
2021/12/10 01:56:34;;;;;;;22.88;12.00;;;22.00;56.70;;;;;;5099312;28;20045;-72
2021/12/10 01:59:01;;;;;;;19.30;12.10;;;21.90;56.70;;;;;;5098639;28;20044;-72
2021/12/10 02:01:32;;;;;;;23.60;13.55;;;22.00;56.50;;;;;;5099362;28;20071;-72
2021/12/10 02:04:01;;;;;;;18.85;11.30;;;22.00;56.40;;;;;;5099236;28;20052;-71
2021/12/10 02:06:27;;;;;;;20.98;11.52;;;22.00;56.30;;;;;;5098951;28;20059;-72
2021/12/10 02:08:54;;;;;;;18.20;9.43;;;22.10;56.20;;;;;;5098957;28;20054;-72
2021/12/10 02:11:20;;;;;;;18.17;11.40;;;22.20;56.00;;;;;;5098982;28;20104;-71
2021/12/10 02:13:47;;;;;;;18.63;10.30;;;22.30;55.70;;;;;;5099077;28;20040;-73
2021/12/10 02:16:14;;;;;;;19.15;10.38;;;22.40;55.60;;;;;;5099038;28;20036;-71
2021/12/10 02:18:41;;;;;;;18.77;11.60;;;22.40;55.50;;;;;;5098695;28;20055;-72
2021/12/10 02:21:07;;;;;;;23.98;12.60;;;22.40;55.40;;;;;;5098988;28;20055;-72
2021/12/10 02:23:41;;;;;;;21.70;11.77;;;22.30;55.50;;;;;;5098778;28;20041;-71
2021/12/10 02:26:11;;;;;;;22.05;11.55;;;22.20;55.60;;;;;;5098616;28;20075;-71
2021/12/10 02:28:38;;;;;;;20.52;11.68;;;22.10;55.90;;;;;;5098372;28;20067;-72
2021/12/10 02:31:07;;;;;;;20.05;10.70;;;22.10;55.90;;;;;;5098822;28;20059;-71
2021/12/10 02:33:34;;;;;;;19.17;11.23;;;22.10;56.00;;;;;;5098619;28;20032;-72
2021/12/10 02:36:00;;;;;;;20.55;10.93;;;22.10;56.00;;;;;;5098555;28;20042;-71
2021/12/10 02:38:27;;;;;;;21.63;12.35;;;22.10;56.10;;;;;;5098388;28;20064;-72
2021/12/10 02:40:54;;;;;;;19.98;12.45;;;22.10;55.90;;;;;;5098474;28;20098;-72
2021/12/10 02:43:22;;;;;;;20.42;12.63;;;22.20;55.80;;;;;;5098465;28;20067;-71
2021/12/10 02:45:53;;;;;;;21.65;12.13;;;22.10;55.90;;;;;;5098356;28;20103;-72
2021/12/10 02:48:20;;;;;;;21.35;12.35;;;22.00;55.90;;;;;;5098037;28;20048;-72
2021/12/10 02:50:47;;;;;;;23.65;12.55;;;22.10;56.00;;;;;;5098313;28;20104;-72
2021/12/10 02:53:16;;;;;;;19.00;11.60;;;22.10;56.10;;;;;;5098270;28;20045;-72
2021/12/10 02:55:44;;;;;;;21.98;12.30;;;22.20;56.10;;;;;;5098049;28;20041;-71
2021/12/10 02:58:12;;;;;;;20.85;12.48;;;22.10;55.90;;;;;;5098048;28;20058;-72
2021/12/10 03:00:49;;;;;;;22.60;12.32;;;22.00;55.90;;;;;;5097919;28;20045;-72
2021/12/10 03:03:15;;;;;;;21.75;12.43;;;22.10;55.90;;;;;;5098108;28;20064;-72
2021/12/10 03:05:42;;;;;;;19.00;12.10;;;22.10;55.90;;;;;;5097964;28;20107;-71
2021/12/10 03:08:08;;;;;;;25.33;13.05;;;22.00;55.80;;;;;;5097744;28;20040;-72
2021/12/10 03:10:34;;;;;;;20.83;12.15;;;22.00;55.80;;;;;;5097710;28;20052;-72
2021/12/10 03:13:01;;;;;;;29.05;13.65;;;22.00;55.80;;;;;;5097239;28;20071;-71
2021/12/10 03:15:29;;;;;;;24.38;12.23;;;21.90;55.90;;;;;;5097591;28;20091;-71
2021/12/10 03:17:56;;;;;;;21.13;11.68;;;22.00;55.90;;;;;;5097754;28;20044;-71
2021/12/10 03:20:25;;;;;;;19.35;12.10;;;22.00;55.90;;;;;;5097568;28;20130;-73
2021/12/10 03:22:52;;;;;;;20.50;11.43;;;22.00;55.90;;;;;;5097674;28;20040;-72
2021/12/10 03:25:19;;;;;;;20.13;10.48;;;21.90;56.00;;;;;;5097623;28;20067;-71
2021/12/10 03:27:46;;;;;;;20.00;9.80;;;21.90;56.00;;;;;;5097520;28;20043;-71
2021/12/10 03:30:16;;;;;;;19.52;11.32;;;22.00;55.80;;;;;;5097166;28;20051;-72
2021/12/10 03:32:44;;;;;;;16.98;11.35;;;22.10;55.60;;;;;;5097498;28;20072;-72
2021/12/10 03:35:16;;;;;;;18.67;10.55;;;22.00;55.50;;;;;;5097369;28;20045;-71
2021/12/10 03:37:45;;;;;;;18.63;10.93;;;22.00;55.50;;;;;;5097271;28;20104;-71
2021/12/10 03:40:13;;;;;;;16.90;8.52;;;22.10;55.60;;;;;;5097150;28;20040;-72
2021/12/10 03:42:41;;;;;;;14.13;8.57;;;22.10;55.70;;;;;;5097228;28;20035;-72
2021/12/10 03:45:09;;;;;;;17.58;10.73;;;22.20;55.40;;;;;;5097162;28;20040;-72
2021/12/10 03:47:35;;;;;;;19.48;10.32;;;22.20;55.10;;;;;;5096810;28;20044;-71
2021/12/10 03:50:04;;;;;;;22.80;11.00;;;22.20;55.30;;;;;;5096794;28;20100;-71
2021/12/10 03:52:30;;;;;;;20.38;11.32;;;22.30;55.30;;;;;;5084659;28;20043;-72
2021/12/10 03:54:59;;;;;;;22.73;11.93;;;22.20;55.20;;;;;;5097046;28;20040;-72
2021/12/10 03:57:26;;;;;;;18.05;11.13;;;22.10;55.30;;;;;;5097078;28;20055;-72
2021/12/10 03:59:52;;;;;;;21.42;12.52;;;22.10;55.40;;;;;;5096469;28;20042;-72
2021/12/10 04:02:18;;;;;;;21.27;11.82;;;22.00;55.40;;;;;;5096904;28;20056;-72
2021/12/10 04:04:49;;;;;;;21.38;9.95;;;22.00;55.60;;;;;;5096800;28;20068;-72
2021/12/10 04:07:20;;;;;;;21.95;11.27;;;22.00;55.70;;;;;;5097054;28;20551;-72
2021/12/10 04:09:46;;;;;;;18.42;11.63;;;22.00;55.60;;;;;;5096830;28;20048;-72
2021/12/10 04:12:13;;;;;;;24.42;12.02;;;22.00;55.70;;;;;;5096555;28;20064;-71
2021/12/10 04:14:42;;;;;;;22.40;11.00;;;22.00;55.70;;;;;;5096811;28;20068;-72
2021/12/10 04:17:08;;;;;;;29.27;12.45;;;21.90;55.80;;;;;;5096942;28;20044;-72
2021/12/10 04:19:36;;;;;;;21.75;11.77;;;21.90;55.80;;;;;;5096710;28;20076;-71
2021/12/10 04:22:05;;;;;;;20.33;12.75;;;21.90;55.90;;;;;;5096659;28;20041;-72
2021/12/10 04:24:35;;;;;;;20.23;12.52;;;21.90;55.80;;;;;;5096661;28;20047;-72
2021/12/10 04:27:03;;;;;;;20.15;12.40;;;22.00;55.70;;;;;;5096726;28;20055;-71
2021/12/10 04:29:30;;;;;;;19.73;12.27;;;21.90;55.70;;;;;;5096515;28;20056;-72
2021/12/10 04:31:59;;;;;;;22.33;12.85;;;21.90;55.80;;;;;;5096285;28;20040;-72
2021/12/10 04:34:27;;;;;;;22.13;13.25;;;21.90;55.70;;;;;;5096600;28;20037;-72
2021/12/10 04:36:56;;;;;;;23.90;11.70;;;21.90;55.60;;;;;;5096751;28;20048;-72
2021/12/10 04:39:22;;;;;;;19.02;11.63;;;22.00;55.70;;;;;;5096485;28;20040;-71
2021/12/10 04:41:48;;;;;;;21.77;11.15;;;22.10;55.30;;;;;;5096502;28;20067;-72
2021/12/10 04:44:15;;;;;;;20.98;12.00;;;22.20;55.00;;;;;;5096536;28;20050;-71
2021/12/10 04:46:41;;;;;;;22.23;11.70;;;22.30;54.80;;;;;;5096434;28;20049;-72
2021/12/10 04:49:12;;;;;;;23.17;12.57;;;22.40;54.50;;;;;;5095832;28;20051;-72
2021/12/10 04:51:47;;;;;;;20.40;13.27;;;22.50;54.50;;;;;;5096370;28;20051;-72
2021/12/10 04:54:16;;;;;;;24.20;13.20;;;22.50;54.70;;;;;;5096383;28;20050;-71
2021/12/10 04:56:43;;;;;;;17.50;11.05;;;22.20;54.90;;;;;;5096501;28;20037;-72
2021/12/10 04:59:13;;;;;;;12.05;6.90;;;22.30;55.40;;;;;;5096430;28;20037;-73
2021/12/10 05:01:40;;;;;;;6.00;4.15;;;22.30;55.10;;;;;;5095786;28;20114;-72
2021/12/10 05:04:10;;;;;;;20.30;10.18;;;22.60;55.10;;;;;;5095294;28;20053;-72
2021/12/10 05:06:37;;;;;;;17.83;10.02;;;22.60;55.00;;;;;;5095690;28;20104;-73
2021/12/10 05:09:07;;;;;;;10.60;5.20;;;22.50;55.00;;;;;;5095486;28;20119;-71
2021/12/10 05:11:33;;;;;;;19.80;10.75;;;22.50;55.00;;;;;;5098051;28;20040;-71
2021/12/10 05:13:59;;;;;;;24.30;11.45;;;22.70;55.00;;;;;;5099349;28;20074;-72
2021/12/10 05:16:27;;;;;;;23.58;12.65;;;22.50;54.90;;;;;;5099596;28;20036;-74
2021/12/10 05:18:59;;;;;;;31.00;14.43;;;22.70;55.00;;;;;;5099743;28;20044;-73
2021/12/10 05:21:29;;;;;;;24.70;14.50;;;22.60;56.70;;;;;;5099180;28;20040;-72
2021/12/10 05:23:58;;;;;;;33.58;16.35;;;22.90;58.70;;;;;;5099329;28;20075;-74
2021/12/10 05:26:25;;;;;;;33.08;16.30;;;22.90;62.20;;;;;;5099746;28;20056;-72
2021/12/10 05:28:51;;;;;;;34.53;17.38;;;23.10;61.90;;;;;;5099331;28;20067;-72
2021/12/10 05:31:17;;;;;;;35.92;17.02;;;23.20;62.90;;;;;;5098567;28;20033;-73
2021/12/10 05:33:44;;;;;;;29.80;16.55;;;23.10;58.80;;;;;;5099111;28;20048;-74
2021/12/10 05:36:10;;;;;;;31.25;17.10;;;22.90;58.20;;;;;;5098927;28;20041;-72
2021/12/10 05:38:36;;;;;;;29.67;16.30;;;22.70;58.00;;;;;;5099172;28;20049;-72
2021/12/10 05:41:05;;;;;;;36.10;17.23;;;22.80;58.20;;;;;;5098287;28;20052;-72
2021/12/10 05:43:33;;;;;;;30.30;16.23;;;22.60;58.70;;;;;;5098123;28;20051;-72
2021/12/10 05:45:59;;;;;;;30.38;15.65;;;22.50;59.00;;;;;;5098834;28;20495;-71
2021/12/10 05:48:26;;;;;;;30.27;15.98;;;22.50;59.20;;;;;;5098763;28;20131;-72
2021/12/10 05:50:53;;;;;;;33.78;16.52;;;22.40;59.30;;;;;;5097935;28;20038;-70
2021/12/10 05:53:20;;;;;;;33.25;15.88;;;22.40;59.40;;;;;;5098746;28;20052;-71
2021/12/10 05:55:48;;;;;;;29.70;15.77;;;22.40;59.60;;;;;;5098658;28;20036;-72
2021/12/10 05:58:14;;;;;;;1.02;0.88;;;22.30;59.70;;;;;;5098254;28;20041;-71
2021/12/10 06:00:51;;;;;;;2.22;1.95;;;22.40;59.10;;;;;;5098768;28;20048;-71
2021/12/10 06:03:17;;;;;;;3.28;1.52;;;22.70;57.10;;;;;;5098244;28;20044;-71
2021/12/10 06:05:46;;;;;;;16.83;7.95;;;22.80;54.20;;;;;;5097663;28;20062;-73
2021/12/10 06:08:13;;;;;;;14.70;8.48;;;22.80;49.90;;;;;;5097913;28;20036;-71
2021/12/10 06:10:40;;;;;;;13.88;7.60;;;22.70;46.90;;;;;;5097361;28;20509;-70
2021/12/10 06:13:07;;;;;;;15.50;7.72;;;22.70;46.50;;;;;;5094912;28;20059;-73
2021/12/10 06:15:34;;;;;;;9.10;5.95;;;22.80;46.20;;;;;;5094528;28;20043;-71
2021/12/10 06:18:00;;;;;;;14.20;6.40;;;22.80;46.40;;;;;;5097899;28;20183;-72
2021/12/10 06:20:30;;;;;;;15.27;7.78;;;22.60;45.00;;;;;;5098064;28;20104;-72
2021/12/10 06:22:59;;;;;;;13.23;7.93;;;22.60;47.00;;;;;;5095073;28;20054;-72
2021/12/10 06:25:27;;;;;;;13.30;8.02;;;22.70;46.30;;;;;;5097621;28;20048;-71
2021/12/10 06:27:53;;;;;;;14.73;7.43;;;22.80;46.50;;;;;;5097583;28;20041;-71
2021/12/10 06:30:31;;;;;;;14.70;8.10;;;22.80;46.50;;;;;;5097812;28;20036;-71
2021/12/10 06:32:58;;;;;;;16.23;8.98;;;22.90;46.40;;;;;;5095160;28;20024;-70
2021/12/10 06:35:29;;;;;;;15.82;8.18;;;22.90;46.20;;;;;;5097528;28;20060;-71
2021/12/10 06:37:56;;;;;;;17.83;8.77;;;23.10;48.20;;;;;;5095133;28;20071;-72
2021/12/10 06:40:25;;;;;;;15.00;7.68;;;23.10;47.50;;;;;;5097948;28;20040;-71
2021/12/10 06:42:51;;;;;;;17.52;8.80;;;23.10;46.10;;;;;;5097134;28;20052;-71
2021/12/10 06:45:22;;;;;;;16.63;8.57;;;23.10;46.50;;;;;;5097548;28;20036;-71
2021/12/10 06:47:50;;;;;;;38.10;18.60;;;23.20;45.70;;;;;;5097732;28;20059;-74
2021/12/10 06:50:18;;;;;;;40.38;20.05;;;23.20;53.60;;;;;;5097735;28;20120;-73
2021/12/10 06:52:45;;;;;;;38.78;19.42;;;23.20;56.80;;;;;;5097353;28;20051;-71
2021/12/10 06:55:12;;;;;;;34.88;18.95;;;23.20;56.10;;;;;;5096516;28;20043;-72
2021/12/10 06:57:38;;;;;;;40.58;18.98;;;23.10;56.30;;;;;;5095998;28;20066;-73
2021/12/10 07:00:15;;;;;;;41.05;19.08;;;23.00;56.80;;;;;;5096667;28;20040;-72
2021/12/10 07:02:43;;;;;;;41.95;20.50;;;22.80;57.10;;;;;;5079872;28;20052;-72
2021/12/10 07:05:09;;;;;;;37.05;20.25;;;22.90;57.50;;;;;;5097358;28;20036;-73
2021/12/10 07:07:38;;;;;;;37.63;18.70;;;22.80;57.60;;;;;;5096373;28;20028;-72
2021/12/10 07:10:06;;;;;;;38.08;19.20;;;22.90;57.90;;;;;;5097238;28;20074;-72
2021/12/10 07:12:35;;;;;;;44.47;20.30;;;22.90;58.10;;;;;;5096553;28;20060;-73
2021/12/10 07:15:03;;;;;;;39.22;19.00;;;22.90;58.30;;;;;;5096851;28;20123;-71
2021/12/10 07:17:29;;;;;;;37.33;19.83;;;22.80;58.40;;;;;;5096972;28;20100;-72
2021/12/10 07:19:55;;;;;;;41.67;19.15;;;22.70;58.70;;;;;;5096309;28;20104;-72
2021/12/10 07:22:21;;;;;;;38.45;18.23;;;22.70;58.80;;;;;;5096828;28;20078;-73
2021/12/10 07:24:48;;;;;;;41.03;20.20;;;22.80;58.90;;;;;;5096717;28;20044;-71
2021/12/10 07:27:14;;;;;;;38.67;18.23;;;22.90;59.00;;;;;;5096745;28;20230;-73
2021/12/10 07:29:40;;;;;;;41.70;19.35;;;22.80;58.90;;;;;;5095866;28;20062;-71
2021/12/10 07:32:07;;;;;;;35.53;19.10;;;22.80;59.00;;;;;;5096664;28;20041;-72
2021/12/10 07:34:35;;;;;;;39.97;18.85;;;22.80;59.30;;;;;;5095920;28;20055;-72
2021/12/10 07:37:02;;;;;;;36.90;18.33;;;22.60;59.70;;;;;;5096841;28;20067;-73
2021/12/10 07:39:28;;;;;;;37.92;19.63;;;22.60;60.00;;;;;;5096603;28;20123;-73
2021/12/10 07:41:54;;;;;;;38.20;19.25;;;22.60;60.30;;;;;;5096351;28;20074;-72
2021/12/10 07:44:21;;;;;;;35.33;18.85;;;22.50;60.50;;;;;;5095873;28;20051;-73
2021/12/10 07:46:50;;;;;;;37.50;19.05;;;22.60;60.60;;;;;;5096696;28;20104;-73
2021/12/10 07:49:17;;;;;;;37.17;18.73;;;22.40;60.70;;;;;;5096292;28;20130;-72
2021/12/10 07:51:49;;;;;;;35.28;18.77;;;22.30;60.80;;;;;;5096607;28;20029;-73
2021/12/10 07:54:16;;;;;;;36.08;19.85;;;22.30;60.90;;;;;;5096455;28;20032;-73
2021/12/10 07:56:43;;;;;;;30.10;17.20;;;22.30;60.90;;;;;;5096350;28;20041;-73
2021/12/10 07:59:09;;;;;;;36.83;19.13;;;22.40;61.00;;;;;;5096404;28;21020;-73
2021/12/10 08:01:35;;;;;;;37.80;17.48;;;22.50;61.20;;;;;;5095650;28;20078;-73
2021/12/10 08:04:04;;;;;;;39.10;19.70;;;22.50;61.20;;;;;;5096066;28;20048;-73
2021/12/10 08:06:31;;;;;;;41.63;19.35;;;22.50;61.20;;;;;;5095305;28;20040;-73
2021/12/10 08:08:58;;;;;;;38.55;20.13;;;22.50;61.30;;;;;;5096106;28;20055;-74
2021/12/10 08:11:25;;;;;;;38.13;18.85;;;22.50;61.20;;;;;;5096093;28;20048;-74
2021/12/10 08:13:53;;;;;;;36.80;17.88;;;22.50;61.10;;;;;;5095997;28;20040;-73
2021/12/10 08:16:22;;;;;;;34.35;17.20;;;22.60;61.00;;;;;;5096020;28;20060;-73
2021/12/10 08:18:48;;;;;;;21.90;14.30;;;22.60;60.80;;;;;;5096146;28;20095;-74
2021/12/10 08:21:14;;;;;;;23.90;12.10;;;22.40;60.40;;;;;;5096130;28;20047;-73
2021/12/10 08:23:41;;;;;;;15.90;8.10;;;22.50;60.40;;;;;;5095791;28;20040;-73
2021/12/10 08:26:09;;;;;;;27.17;13.65;;;22.60;58.20;;;;;;5096140;28;20048;-69
2021/12/10 08:28:35;;;;;;;24.42;13.38;;;22.80;55.90;;;;;;5094812;28;20063;-69
2021/12/10 08:31:02;;;;;;;22.88;14.70;;;22.80;53.70;;;;;;5095163;28;20051;-70
2021/12/10 08:33:29;;;;;;;27.77;14.75;;;22.90;53.00;;;;;;5095807;28;20075;-69
2021/12/10 08:36:03;;;;;;;24.08;14.00;;;22.90;52.20;;;;;;5096576;28;20466;-69
2021/12/10 08:38:38;;;;;;;26.15;13.57;;;22.90;52.10;;;;;;5096264;28;20099;-69
2021/12/10 08:41:09;;;;;;;26.95;14.07;;;22.90;51.40;;;;;;5096041;28;20036;-69
2021/12/10 08:43:36;;;;;;;18.48;11.30;;;23.00;51.40;;;;;;5096027;28;20071;-78
2021/12/10 08:46:04;;;;;;;31.33;16.48;;;23.10;51.70;;;;;;5098984;28;20071;-72
2021/12/10 08:48:31;;;;;;;22.48;14.23;;;23.10;51.80;;;;;;5099182;28;20044;-72
2021/12/10 08:51:01;;;;;;;23.20;13.18;;;22.90;52.50;;;;;;5098706;28;20041;-72
2021/12/10 08:53:27;;;;;;;30.50;16.33;;;23.00;53.10;;;;;;5098727;28;20036;-73
2021/12/10 08:55:58;;;;;;;30.92;16.73;;;22.90;53.50;;;;;;5099694;28;20059;-77
2021/12/10 08:58:26;;;;;;;22.77;12.43;;;22.90;53.90;;;;;;5099740;28;20045;-75
2021/12/10 09:01:00;;;;;;;20.88;10.93;;;23.00;53.70;;;;;;5098871;28;20036;-75
2021/12/10 09:03:26;;;;;;;26.25;13.95;;;23.00;53.30;;;;;;5099241;28;20048;-76
2021/12/10 09:05:54;;;;;;;32.45;16.45;;;23.20;55.10;;;;;;5099387;28;20036;-76
2021/12/10 09:08:20;;;;;;;16.42;8.23;;;23.10;54.80;;;;;;5098711;28;20032;-76
2021/12/10 09:10:48;;;;;;;9.13;4.28;;;23.30;54.00;;;;;;5099565;28;20036;-74
2021/12/10 09:13:20;;;;;;;3.25;3.00;;;23.50;52.30;;;;;;5099378;28;20036;-75
2021/12/10 09:15:55;;;;;;;2.55;2.35;;;23.80;50.30;;;;;;5098563;28;20040;-75
2021/12/10 09:18:23;;;;;;;11.32;6.45;;;23.70;49.30;;;;;;5096220;28;20033;-72
2021/12/10 09:20:52;;;;;;;11.68;7.05;;;23.80;49.90;;;;;;5097295;28;20036;-73
2021/12/10 09:23:22;;;;;;;12.15;8.63;;;23.80;50.50;;;;;;5098179;28;20785;-73
2021/12/10 09:25:52;;;;;;;25.35;15.43;;;23.80;50.00;;;;;;5098140;28;20104;-72
2021/12/10 09:28:18;;;;;;;33.20;15.75;;;23.70;49.70;;;;;;5097851;28;20052;-74
2021/12/10 09:30:48;;;;;;;5.25;3.72;;;23.90;51.80;;;;;;5097978;28;20044;-74
2021/12/10 09:33:17;;;;;;;9.95;4.38;;;23.90;52.00;;;;;;5098854;28;20059;-74
2021/12/10 09:35:44;;;;;;;10.23;6.22;;;24.00;51.00;;;;;;5098699;28;20112;-74
2021/12/10 09:38:11;;;;;;;9.82;7.05;;;24.10;51.20;;;;;;5098877;28;20090;-71
2021/12/10 09:40:41;;;;;;;6.68;4.78;;;24.10;50.80;;;;;;5098636;28;20082;-70
2021/12/10 09:43:09;;;;;;;8.00;5.88;;;24.20;48.60;;;;;;5098974;28;20074;-70
2021/12/10 09:45:40;;;;;;;24.88;8.63;;;24.10;48.30;;;;;;5098725;28;20075;-70
2021/12/10 09:48:10;;;;;;;5.75;4.15;;;24.10;50.40;;;;;;5098459;28;20047;-70
2021/12/10 09:50:42;;;;;;;2.72;2.47;;;24.00;51.00;;;;;;5098487;28;20059;-70
2021/12/10 09:53:09;;;;;;;7.72;4.07;;;24.20;52.00;;;;;;5098515;28;20070;-70
2021/12/10 09:55:37;;;;;;;24.67;13.52;;;24.10;52.00;;;;;;5098226;28;20075;-69
2021/12/10 09:58:05;;;;;;;24.92;12.23;;;24.10;48.50;;;;;;5098084;28;20048;-70
2021/12/10 10:00:44;;;;;;;23.77;13.95;;;24.10;45.80;;;;;;5098404;28;20150;-72
2021/12/10 10:03:15;;;;;;;21.73;11.45;;;24.00;44.50;;;;;;5098495;28;20044;-72
2021/12/10 10:05:45;;;;;;;30.50;18.90;;;24.00;44.60;;;;;;5098418;28;20056;-73
2021/12/10 10:08:18;;;;;;;18.30;12.13;;;24.00;42.00;;;;;;5098359;28;20070;-73
2021/12/10 10:10:50;;;;;;;18.10;10.63;;;24.00;46.10;;;;;;5097798;28;20051;-72
2021/12/10 10:13:20;;;;;;;26.63;12.48;;;24.10;47.80;;;;;;5098498;28;20036;-73
2021/12/10 10:15:49;;;;;;;18.17;10.98;;;24.10;50.00;;;;;;5096674;28;20044;-73
2021/12/10 10:18:18;;;;;;;24.15;13.40;;;24.10;47.30;;;;;;5098011;28;20055;-73
2021/12/10 10:20:49;;;;;;;19.70;12.77;;;24.20;49.10;;;;;;5098032;28;20052;-73
2021/12/10 10:23:16;;;;;;;18.58;10.98;;;24.30;47.50;;;;;;5098030;28;20611;-73
2021/12/10 10:25:46;;;;;;;22.17;11.65;;;24.30;50.90;;;;;;5098024;28;20055;-74
2021/12/10 10:28:14;;;;;;;21.40;12.45;;;24.40;51.20;;;;;;5097845;28;20060;-73
2021/12/10 10:30:52;;;;;;;18.05;10.35;;;24.30;50.00;;;;;;5096227;28;20039;-73
2021/12/10 10:33:18;;;;;;;17.75;10.45;;;24.30;51.90;;;;;;5097420;28;20143;-74
2021/12/10 10:35:51;;;;;;;17.90;10.63;;;24.40;46.00;;;;;;5097438;28;20108;-73
2021/12/10 10:38:19;;;;;;;16.08;9.30;;;24.30;45.40;;;;;;5096613;28;20040;-72
2021/12/10 10:41:03;;;;;;;18.27;9.80;;;24.20;45.60;;;;;;5097438;28;20044;-71
2021/12/10 10:43:29;;;;;;;5.88;4.35;;;24.40;43.90;;;;;;5096994;28;20042;-72
2021/12/10 10:45:57;;;;;;;2.25;2.05;;;24.30;49.90;;;;;;5097056;28;20135;-70
2021/12/10 10:48:24;;;;;;;15.50;6.05;;;24.40;51.50;;;;;;5097422;28;20060;-73
2021/12/10 10:51:06;;;;;;;5.07;3.72;;;24.60;49.40;;;;;;5097439;28;20029;-65
2021/12/10 10:53:52;;;;;;;3.27;2.67;;;24.50;51.70;;;;;;5097528;28;20032;-66
2021/12/10 10:56:31;;;;;;;10.55;6.22;;;24.60;52.30;;;;;;5097366;28;20074;-72
2021/12/10 10:59:11;;;;;;;2.88;2.10;;;24.70;50.00;;;;;;5079644;28;20040;-74
2021/12/10 11:01:57;;;;;;;3.47;2.75;;;24.70;50.50;;;;;;5097022;28;20045;-82
2021/12/10 11:04:30;;;;;;;4.72;4.28;;;25.00;53.00;;;;;;5095029;28;20060;-79
2021/12/10 11:07:15;;;;;;;8.90;2.53;;;25.20;53.70;;;;;;5096164;28;20065;-78
2021/12/10 11:09:54;;;;;;;7.20;4.40;;;25.30;53.20;;;;;;5095854;28;20040;-68
2021/12/10 11:12:29;;;;;;;6.78;4.78;;;25.30;45.60;;;;;;5096625;28;20127;-67
2021/12/10 11:14:58;;;;;;;11.93;5.05;;;25.00;43.60;;;;;;5097084;28;20050;-69
2021/12/10 11:17:38;;;;;;;8.32;4.82;;;24.80;42.20;;;;;;5096966;28;20045;-70
2021/12/10 11:20:13;;;;;;;8.65;4.75;;;24.80;41.60;;;;;;5096997;28;20049;-70
2021/12/10 11:22:49;;;;;;;12.93;5.03;;;24.70;41.40;;;;;;5096967;28;20044;-72
2021/12/10 11:25:25;;;;;;;6.72;4.97;;;24.70;45.20;;;;;;5097103;28;20070;-70
2021/12/10 11:28:00;;;;;;;8.35;5.40;;;24.80;46.30;;;;;;5097519;28;20059;-72
2021/12/10 11:30:27;;;;;;;13.32;7.55;;;24.80;49.60;;;;;;5096828;28;20050;-72
2021/12/10 11:32:56;;;;;;;8.13;4.40;;;25.20;48.40;;;;;;5096620;28;20052;-71
2021/12/10 11:35:36;;;;;;;8.98;5.20;;;25.40;44.40;;;;;;5096592;28;20791;-71
2021/12/10 11:38:17;;;;;;;6.90;4.40;;;25.10;40.10;;;;;;5096424;28;20409;-72
2021/12/10 11:41:01;;;;;;;8.85;4.38;;;25.00;42.10;;;;;;5096219;28;20052;-71
2021/12/10 11:46:28;;;;;;;6.78;4.65;;;24.80;47.30;;;;;;5096325;28;20048;-71
2021/12/10 11:49:01;;;;;;;9.70;4.07;;;24.80;47.70;;;;;;5096106;28;20047;-70
2021/12/10 11:51:34;;;;;;;10.13;4.10;;;24.70;47.60;;;;;;5095367;28;20063;-71
2021/12/10 11:54:08;;;;;;;6.97;4.85;;;24.60;48.30;;;;;;5096084;28;20040;-70
2021/12/10 11:56:40;;;;;;;6.65;3.97;;;24.60;47.90;;;;;;5096229;28;20093;-71
2021/12/10 11:59:08;;;;;;;7.15;3.78;;;24.50;48.40;;;;;;5095510;28;20044;-70
2021/12/10 12:02:04;;;;;;;10.98;4.57;;;24.50;48.20;;;;;;5095902;28;20047;-72
2021/12/10 12:04:43;;;;;;;13.38;4.32;;;24.50;48.50;;;;;;5096098;28;20048;-71
2021/12/10 12:07:24;;;;;;;9.63;4.07;;;24.40;49.10;;;;;;5095961;28;20044;-71
2021/12/10 12:10:04;;;;;;;12.95;5.22;;;24.40;49.90;;;;;;5074957;28;20040;-73
2021/12/10 12:12:40;;;;;;;7.90;3.58;;;24.20;49.60;;;;;;5075894;28;20100;-72
2021/12/10 12:15:36;;;;;;;5.05;3.42;;;24.20;49.20;;;;;;5075755;28;20036;-73
2021/12/10 12:18:06;;;;;;;7.32;3.35;;;24.20;49.80;;;;;;5075736;28;20060;-72
2021/12/10 12:20:48;;;;;;;7.20;3.90;;;24.10;49.90;;;;;;5074597;28;20031;-71
2021/12/10 12:26:25;;;;;;;4.25;3.08;;;24.10;50.00;;;;;;5075719;28;20041;-71
2021/12/10 12:28:53;;;;;;;8.43;3.53;;;24.00;50.40;;;;;;5075213;28;20048;-71
2021/12/10 12:31:26;;;;;;;4.40;3.78;;;24.00;50.60;;;;;;5075188;28;20301;-71
2021/12/10 12:33:59;;;;;;;7.03;3.42;;;24.00;50.90;;;;;;5075284;28;20059;-71
2021/12/10 12:36:45;;;;;;;10.27;4.30;;;24.00;50.80;;;;;;5075578;28;20099;-71
2021/12/10 12:39:15;;;;;;;11.77;4.65;;;23.90;51.20;;;;;;5075894;28;20041;-71
2021/12/10 12:41:44;;;;;;;7.97;4.32;;;24.00;51.20;;;;;;5075783;28;20101;-72
2021/12/10 12:44:26;;;;;;;9.68;4.35;;;23.80;51.20;;;;;;5075315;28;20083;-71
2021/12/10 12:47:00;;;;;;;8.50;3.00;;;23.90;51.50;;;;;;5075843;28;20103;-73
2021/12/10 12:49:37;;;;;;;6.25;4.30;;;23.80;51.70;;;;;;5075607;28;20080;-73
2021/12/10 12:52:09;;;;;;;6.38;3.65;;;23.80;52.20;;;;;;5075644;28;20044;-72
2021/12/10 12:54:42;;;;;;;9.77;3.65;;;23.80;52.90;;;;;;5090643;28;20071;-74
2021/12/10 12:57:09;;;;;;;;;;;23.80;54.10;;;;;;5096033;28;20131;-73
2021/12/10 12:59:36;;;;;;;7.60;4.03;;;23.90;53.60;;;;;;5095715;28;19915;-71
2021/12/10 13:02:07;;;;;;;9.50;3.53;;;23.80;52.60;;;;;;5095704;28;20171;-73
2021/12/10 13:04:43;;;;;;;9.82;4.68;;;23.70;53.10;;;;;;5094681;28;20103;-74